sensor_id;sensor_type;location;lat;lon;timestamp;pressure;altitude;pressure_sealevel;temperature;humidity
75089;BME280;63673;49.928;8.150;2023-06-14T00:00:35;987.13;;;18.9;43.52
75089;BME280;63673;49.928;8.150;2023-06-14T00:01:36;987.18;;;18.87;43.57
75089;BME280;63673;49.928;8.150;2023-06-14T00:02:38;987.11;;;18.85;43.59
75089;BME280;63673;49.928;8.150;2023-06-14T00:03:40;987.13;;;18.84;43.63
75089;BME280;63673;49.928;8.150;2023-06-14T00:04:42;987.11;;;18.81;44.04
75089;BME280;63673;49.928;8.150;2023-06-14T00:05:43;987.15;;;18.8;43.85
75089;BME280;63673;49.928;8.150;2023-06-14T00:06:45;987.16;;;18.78;43.76
75089;BME280;63673;49.928;8.150;2023-06-14T00:07:47;987.11;;;18.76;43.87
75089;BME280;63673;49.928;8.150;2023-06-14T00:08:48;987.11;;;18.74;44.23
75089;BME280;63673;49.928;8.150;2023-06-14T00:09:50;987.11;;;18.73;44.08
75089;BME280;63673;49.928;8.150;2023-06-14T00:10:52;987.12;;;18.71;44.02
75089;BME280;63673;49.928;8.150;2023-06-14T00:11:54;987.12;;;18.69;44.28
75089;BME280;63673;49.928;8.150;2023-06-14T00:12:55;987.08;;;18.68;44.21
75089;BME280;63673;49.928;8.150;2023-06-14T00:13:57;987.13;;;18.67;44.1
75089;BME280;63673;49.928;8.150;2023-06-14T00:14:59;987.12;;;18.65;44.51
75089;BME280;63673;49.928;8.150;2023-06-14T00:16:01;987.08;;;18.63;44.25
75089;BME280;63673;49.928;8.150;2023-06-14T00:17:02;987.09;;;18.62;44.37
75089;BME280;63673;49.928;8.150;2023-06-14T00:18:04;987.13;;;18.61;44.41
75089;BME280;63673;49.928;8.150;2023-06-14T00:19:06;987.06;;;18.61;44.13
75089;BME280;63673;49.928;8.150;2023-06-14T00:20:08;987.13;;;18.59;44.84
75089;BME280;63673;49.928;8.150;2023-06-14T00:21:09;987.11;;;18.58;44.67
75089;BME280;63673;49.928;8.150;2023-06-14T00:22:11;987.1;;;18.57;44.47
75089;BME280;63673;49.928;8.150;2023-06-14T00:23:13;987.11;;;18.56;44.46
75089;BME280;63673;49.928;8.150;2023-06-14T00:24:14;987.12;;;18.55;44.61
75089;BME280;63673;49.928;8.150;2023-06-14T00:25:16;987.12;;;18.54;44.58
75089;BME280;63673;49.928;8.150;2023-06-14T00:26:18;987.09;;;18.52;44.35
75089;BME280;63673;49.928;8.150;2023-06-14T00:27:20;987.11;;;18.5;44.87
75089;BME280;63673;49.928;8.150;2023-06-14T00:28:21;987.08;;;18.49;44.76
75089;BME280;63673;49.928;8.150;2023-06-14T00:29:23;987.11;;;18.48;44.56
75089;BME280;63673;49.928;8.150;2023-06-14T00:30:25;987.13;;;18.46;44.75
75089;BME280;63673;49.928;8.150;2023-06-14T00:31:27;987.09;;;18.44;45.19
75089;BME280;63673;49.928;8.150;2023-06-14T00:32:28;987.07;;;18.42;44.67
75089;BME280;63673;49.928;8.150;2023-06-14T00:33:30;987.08;;;18.4;45.02
75089;BME280;63673;49.928;8.150;2023-06-14T00:34:32;987.09;;;18.38;45.03
75089;BME280;63673;49.928;8.150;2023-06-14T00:35:34;987.08;;;18.37;45.26
75089;BME280;63673;49.928;8.150;2023-06-14T00:36:35;987.11;;;18.34;45.1
75089;BME280;63673;49.928;8.150;2023-06-14T00:37:37;987.06;;;18.34;45.12
75089;BME280;63673;49.928;8.150;2023-06-14T00:38:39;987.05;;;18.32;45.26
75089;BME280;63673;49.928;8.150;2023-06-14T00:39:40;987.07;;;18.3;45.41
75089;BME280;63673;49.928;8.150;2023-06-14T00:40:42;987.05;;;18.28;45.49
75089;BME280;63673;49.928;8.150;2023-06-14T00:41:44;987.01;;;18.27;45.53
75089;BME280;63673;49.928;8.150;2023-06-14T00:42:50;987.08;;;18.25;45.56
75089;BME280;63673;49.928;8.150;2023-06-14T00:43:58;987.1;;;18.23;45.46
75089;BME280;63673;49.928;8.150;2023-06-14T00:45:08;987.08;;;18.22;45.79
75089;BME280;63673;49.928;8.150;2023-06-14T00:46:09;987.11;;;18.19;45.62
75089;BME280;63673;49.928;8.150;2023-06-14T00:47:11;987.11;;;18.18;45.69
75089;BME280;63673;49.928;8.150;2023-06-14T00:48:13;987.09;;;18.16;46.06
75089;BME280;63673;49.928;8.150;2023-06-14T00:49:15;987.09;;;18.15;45.85
75089;BME280;63673;49.928;8.150;2023-06-14T00:50:16;987.09;;;18.14;45.77
75089;BME280;63673;49.928;8.150;2023-06-14T00:51:18;987.08;;;18.13;45.78
75089;BME280;63673;49.928;8.150;2023-06-14T00:52:20;987.11;;;18.12;46.09
75089;BME280;63673;49.928;8.150;2023-06-14T00:53:22;987.08;;;18.12;45.95
75089;BME280;63673;49.928;8.150;2023-06-14T00:54:23;987.14;;;18.09;45.84
75089;BME280;63673;49.928;8.150;2023-06-14T00:55:25;987.14;;;18.08;45.85
75089;BME280;63673;49.928;8.150;2023-06-14T00:56:27;987.11;;;18.08;46.31
75089;BME280;63673;49.928;8.150;2023-06-14T00:57:29;987.17;;;18.07;46.34
75089;BME280;63673;49.928;8.150;2023-06-14T00:58:30;987.11;;;18.05;46.25
75089;BME280;63673;49.928;8.150;2023-06-14T00:59:32;987.12;;;18.04;46.27
75089;BME280;63673;49.928;8.150;2023-06-14T01:00:34;987.11;;;18.03;46.75
75089;BME280;63673;49.928;8.150;2023-06-14T01:01:35;987.14;;;18.03;46.7
75089;BME280;63673;49.928;8.150;2023-06-14T01:02:38;987.13;;;18.02;46.16
75089;BME280;63673;49.928;8.150;2023-06-14T01:03:39;987.15;;;18.02;46.33
75089;BME280;63673;49.928;8.150;2023-06-14T01:04:41;987.16;;;18.01;46.4
75089;BME280;63673;49.928;8.150;2023-06-14T01:05:42;987.19;;;18;46.08
75089;BME280;63673;49.928;8.150;2023-06-14T01:06:45;987.2;;;18;46.38
75089;BME280;63673;49.928;8.150;2023-06-14T01:07:54;987.2;;;17.99;46.34
75089;BME280;63673;49.928;8.150;2023-06-14T01:08:50;987.19;;;18;46.49
75089;BME280;63673;49.928;8.150;2023-06-14T01:09:54;987.17;;;18;46.37
75089;BME280;63673;49.928;8.150;2023-06-14T01:10:52;987.17;;;17.99;46.34
75089;BME280;63673;49.928;8.150;2023-06-14T01:11:54;987.19;;;17.98;46.38
75089;BME280;63673;49.928;8.150;2023-06-14T01:12:57;987.2;;;17.98;46.36
75089;BME280;63673;49.928;8.150;2023-06-14T01:13:56;987.26;;;17.96;46.58
75089;BME280;63673;49.928;8.150;2023-06-14T01:14:58;987.27;;;17.95;46.46
75089;BME280;63673;49.928;8.150;2023-06-14T01:16:00;987.23;;;17.93;46.59
75089;BME280;63673;49.928;8.150;2023-06-14T01:17:01;987.28;;;17.93;46.55
75089;BME280;63673;49.928;8.150;2023-06-14T01:18:03;987.25;;;17.91;46.47
75089;BME280;63673;49.928;8.150;2023-06-14T01:19:05;987.26;;;17.9;46.55
75089;BME280;63673;49.928;8.150;2023-06-14T01:20:07;987.27;;;17.88;46.54
75089;BME280;63673;49.928;8.150;2023-06-14T01:21:19;987.29;;;17.86;46.8
75089;BME280;63673;49.928;8.150;2023-06-14T01:22:10;987.28;;;17.84;47.11
75089;BME280;63673;49.928;8.150;2023-06-14T01:23:12;987.25;;;17.83;47.02
75089;BME280;63673;49.928;8.150;2023-06-14T01:24:14;987.2;;;17.82;47.16
75089;BME280;63673;49.928;8.150;2023-06-14T01:25:15;987.26;;;17.81;46.89
75089;BME280;63673;49.928;8.150;2023-06-14T01:26:17;987.25;;;17.8;46.95
75089;BME280;63673;49.928;8.150;2023-06-14T01:27:19;987.25;;;17.78;46.71
75089;BME280;63673;49.928;8.150;2023-06-14T01:28:21;987.29;;;17.77;46.98
75089;BME280;63673;49.928;8.150;2023-06-14T01:29:23;987.29;;;17.75;47
75089;BME280;63673;49.928;8.150;2023-06-14T01:30:24;987.26;;;17.72;47
75089;BME280;63673;49.928;8.150;2023-06-14T01:31:26;987.3;;;17.71;46.96
75089;BME280;63673;49.928;8.150;2023-06-14T01:32:28;987.25;;;17.69;47.25
75089;BME280;63673;49.928;8.150;2023-06-14T01:33:29;987.2;;;17.68;47.6
75089;BME280;63673;49.928;8.150;2023-06-14T01:34:31;987.26;;;17.67;47.4
75089;BME280;63673;49.928;8.150;2023-06-14T01:35:33;987.25;;;17.64;47.42
75089;BME280;63673;49.928;8.150;2023-06-14T01:36:35;987.3;;;17.64;47.12
75089;BME280;63673;49.928;8.150;2023-06-14T01:37:36;987.28;;;17.62;47.37
75089;BME280;63673;49.928;8.150;2023-06-14T01:38:38;987.3;;;17.61;47.36
75089;BME280;63673;49.928;8.150;2023-06-14T01:39:40;987.31;;;17.6;47.44
75089;BME280;63673;49.928;8.150;2023-06-14T01:40:42;987.3;;;17.59;47.62
75089;BME280;63673;49.928;8.150;2023-06-14T01:41:43;987.31;;;17.58;47.56
75089;BME280;63673;49.928;8.150;2023-06-14T01:42:45;987.3;;;17.57;47.42
75089;BME280;63673;49.928;8.150;2023-06-14T01:43:47;987.28;;;17.56;47.54
75089;BME280;63673;49.928;8.150;2023-06-14T01:44:48;987.26;;;17.56;47.6
75089;BME280;63673;49.928;8.150;2023-06-14T01:45:50;987.31;;;17.55;47.44
75089;BME280;63673;49.928;8.150;2023-06-14T01:46:52;987.36;;;17.54;47.39
75089;BME280;63673;49.928;8.150;2023-06-14T01:47:54;987.34;;;17.53;47.62
75089;BME280;63673;49.928;8.150;2023-06-14T01:48:55;987.33;;;17.52;47.49
75089;BME280;63673;49.928;8.150;2023-06-14T01:49:57;987.31;;;17.51;47.8
75089;BME280;63673;49.928;8.150;2023-06-14T01:50:59;987.33;;;17.5;47.62
75089;BME280;63673;49.928;8.150;2023-06-14T01:52:00;987.32;;;17.48;47.63
75089;BME280;63673;49.928;8.150;2023-06-14T01:53:02;987.33;;;17.47;47.78
75089;BME280;63673;49.928;8.150;2023-06-14T01:54:04;987.34;;;17.47;48.09
75089;BME280;63673;49.928;8.150;2023-06-14T01:55:06;987.33;;;17.45;47.62
75089;BME280;63673;49.928;8.150;2023-06-14T01:56:07;987.34;;;17.43;47.87
75089;BME280;63673;49.928;8.150;2023-06-14T01:57:09;987.34;;;17.42;47.87
75089;BME280;63673;49.928;8.150;2023-06-14T01:58:11;987.36;;;17.4;48.03
75089;BME280;63673;49.928;8.150;2023-06-14T01:59:13;987.36;;;17.39;48
75089;BME280;63673;49.928;8.150;2023-06-14T02:00:15;987.34;;;17.38;47.96
75089;BME280;63673;49.928;8.150;2023-06-14T02:01:16;987.3;;;17.36;47.93
75089;BME280;63673;49.928;8.150;2023-06-14T02:02:18;987.35;;;17.35;48.16
75089;BME280;63673;49.928;8.150;2023-06-14T02:03:20;987.3;;;17.33;47.93
75089;BME280;63673;49.928;8.150;2023-06-14T02:04:21;987.29;;;17.32;48.38
75089;BME280;63673;49.928;8.150;2023-06-14T02:05:23;987.32;;;17.31;48.12
75089;BME280;63673;49.928;8.150;2023-06-14T02:06:26;987.3;;;17.3;48.12
75089;BME280;63673;49.928;8.150;2023-06-14T02:07:26;987.3;;;17.29;48.32
75089;BME280;63673;49.928;8.150;2023-06-14T02:08:28;987.33;;;17.28;48.28
75089;BME280;63673;49.928;8.150;2023-06-14T02:09:30;987.28;;;17.28;48.26
75089;BME280;63673;49.928;8.150;2023-06-14T02:10:32;987.32;;;17.26;48.27
75089;BME280;63673;49.928;8.150;2023-06-14T02:11:34;987.35;;;17.25;48.27
75089;BME280;63673;49.928;8.150;2023-06-14T02:12:35;987.32;;;17.24;48.24
75089;BME280;63673;49.928;8.150;2023-06-14T02:13:37;987.36;;;17.21;48.51
75089;BME280;63673;49.928;8.150;2023-06-14T02:14:39;987.34;;;17.2;48.51
75089;BME280;63673;49.928;8.150;2023-06-14T02:15:40;987.3;;;17.19;48.79
75089;BME280;63673;49.928;8.150;2023-06-14T02:16:42;987.35;;;17.17;48.8
75089;BME280;63673;49.928;8.150;2023-06-14T02:17:44;987.4;;;17.17;48.85
75089;BME280;63673;49.928;8.150;2023-06-14T02:18:46;987.34;;;17.16;48.93
75089;BME280;63673;49.928;8.150;2023-06-14T02:19:47;987.34;;;17.14;48.89
75089;BME280;63673;49.928;8.150;2023-06-14T02:20:49;987.34;;;17.14;49.2
75089;BME280;63673;49.928;8.150;2023-06-14T02:21:51;987.38;;;17.12;48.85
75089;BME280;63673;49.928;8.150;2023-06-14T02:22:52;987.37;;;17.1;48.87
75089;BME280;63673;49.928;8.150;2023-06-14T02:23:54;987.39;;;17.09;49.03
75089;BME280;63673;49.928;8.150;2023-06-14T02:24:56;987.43;;;17.08;49.09
75089;BME280;63673;49.928;8.150;2023-06-14T02:25:58;987.42;;;17.07;49.01
75089;BME280;63673;49.928;8.150;2023-06-14T02:26:59;987.37;;;17.06;49.58
75089;BME280;63673;49.928;8.150;2023-06-14T02:28:01;987.33;;;17.05;49.24
75089;BME280;63673;49.928;8.150;2023-06-14T02:29:03;987.36;;;17.04;49.16
75089;BME280;63673;49.928;8.150;2023-06-14T02:30:05;987.41;;;17.04;49.31
75089;BME280;63673;49.928;8.150;2023-06-14T02:31:06;987.4;;;17.04;49.26
75089;BME280;63673;49.928;8.150;2023-06-14T02:32:08;987.43;;;17.03;49.15
75089;BME280;63673;49.928;8.150;2023-06-14T02:33:10;987.37;;;17.03;49.4
75089;BME280;63673;49.928;8.150;2023-06-14T02:34:12;987.33;;;17.03;49.14
75089;BME280;63673;49.928;8.150;2023-06-14T02:35:14;987.41;;;17.02;49.45
75089;BME280;63673;49.928;8.150;2023-06-14T02:36:15;987.41;;;17.01;49.48
75089;BME280;63673;49.928;8.150;2023-06-14T02:37:17;987.4;;;17.01;49.79
75089;BME280;63673;49.928;8.150;2023-06-14T02:38:18;987.39;;;17.01;49.46
75089;BME280;63673;49.928;8.150;2023-06-14T02:39:20;987.41;;;17.01;49.58
75089;BME280;63673;49.928;8.150;2023-06-14T02:40:22;987.39;;;16.99;49.46
75089;BME280;63673;49.928;8.150;2023-06-14T02:41:24;987.37;;;16.99;49.65
75089;BME280;63673;49.928;8.150;2023-06-14T02:42:25;987.42;;;16.98;49.74
75089;BME280;63673;49.928;8.150;2023-06-14T02:43:28;987.42;;;16.96;49.47
75089;BME280;63673;49.928;8.150;2023-06-14T02:44:29;987.41;;;16.96;49.61
75089;BME280;63673;49.928;8.150;2023-06-14T02:45:31;987.39;;;16.95;49.86
75089;BME280;63673;49.928;8.150;2023-06-14T02:46:32;987.44;;;16.93;49.68
75089;BME280;63673;49.928;8.150;2023-06-14T02:47:34;987.42;;;16.92;49.77
75089;BME280;63673;49.928;8.150;2023-06-14T02:48:36;987.4;;;16.91;49.92
75089;BME280;63673;49.928;8.150;2023-06-14T02:49:38;987.37;;;16.9;49.64
75089;BME280;63673;49.928;8.150;2023-06-14T02:50:39;987.36;;;16.89;49.85
75089;BME280;63673;49.928;8.150;2023-06-14T02:51:41;987.41;;;16.88;49.8
75089;BME280;63673;49.928;8.150;2023-06-14T02:52:43;987.41;;;16.88;50.07
75089;BME280;63673;49.928;8.150;2023-06-14T02:53:44;987.44;;;16.86;49.95
75089;BME280;63673;49.928;8.150;2023-06-14T02:54:46;987.46;;;16.85;50.08
75089;BME280;63673;49.928;8.150;2023-06-14T02:55:48;987.45;;;16.84;50.15
75089;BME280;63673;49.928;8.150;2023-06-14T02:56:50;987.46;;;16.84;49.99
75089;BME280;63673;49.928;8.150;2023-06-14T02:57:51;987.42;;;16.82;50.08
75089;BME280;63673;49.928;8.150;2023-06-14T02:58:53;987.4;;;16.81;50.03
75089;BME280;63673;49.928;8.150;2023-06-14T02:59:55;987.43;;;16.79;50.26
75089;BME280;63673;49.928;8.150;2023-06-14T03:00:57;987.44;;;16.79;50.2
75089;BME280;63673;49.928;8.150;2023-06-14T03:01:58;987.48;;;16.77;50.46
75089;BME280;63673;49.928;8.150;2023-06-14T03:03:00;987.41;;;16.75;50.37
75089;BME280;63673;49.928;8.150;2023-06-14T03:04:02;987.44;;;16.75;50.26
75089;BME280;63673;49.928;8.150;2023-06-14T03:05:04;987.46;;;16.73;50.58
75089;BME280;63673;49.928;8.150;2023-06-14T03:06:05;987.46;;;16.72;50.9
75089;BME280;63673;49.928;8.150;2023-06-14T03:07:07;987.48;;;16.71;50.46
75089;BME280;63673;49.928;8.150;2023-06-14T03:08:09;987.43;;;16.7;51.03
75089;BME280;63673;49.928;8.150;2023-06-14T03:09:11;987.45;;;16.68;50.89
75089;BME280;63673;49.928;8.150;2023-06-14T03:10:12;987.46;;;16.67;50.75
75089;BME280;63673;49.928;8.150;2023-06-14T03:11:14;987.52;;;16.64;50.71
75089;BME280;63673;49.928;8.150;2023-06-14T03:12:16;987.53;;;16.62;51.39
75089;BME280;63673;49.928;8.150;2023-06-14T03:13:17;987.52;;;16.6;51.09
75089;BME280;63673;49.928;8.150;2023-06-14T03:14:19;987.5;;;16.59;50.95
75089;BME280;63673;49.928;8.150;2023-06-14T03:15:21;987.53;;;16.57;51.22
75089;BME280;63673;49.928;8.150;2023-06-14T03:16:22;987.55;;;16.55;51.49
75089;BME280;63673;49.928;8.150;2023-06-14T03:17:24;987.6;;;16.53;51.42
75089;BME280;63673;49.928;8.150;2023-06-14T03:18:26;987.52;;;16.5;51.32
75089;BME280;63673;49.928;8.150;2023-06-14T03:19:28;987.57;;;16.49;51.45
75089;BME280;63673;49.928;8.150;2023-06-14T03:20:29;987.67;;;16.47;51.96
75089;BME280;63673;49.928;8.150;2023-06-14T03:21:31;987.62;;;16.45;52.04
75089;BME280;63673;49.928;8.150;2023-06-14T03:22:33;987.64;;;16.44;52.21
75089;BME280;63673;49.928;8.150;2023-06-14T03:23:35;987.68;;;16.43;51.91
75089;BME280;63673;49.928;8.150;2023-06-14T03:24:36;987.73;;;16.41;52.08
75089;BME280;63673;49.928;8.150;2023-06-14T03:25:38;987.7;;;16.4;52.19
75089;BME280;63673;49.928;8.150;2023-06-14T03:26:40;987.7;;;16.38;52.26
75089;BME280;63673;49.928;8.150;2023-06-14T03:27:42;987.76;;;16.36;52.08
75089;BME280;63673;49.928;8.150;2023-06-14T03:28:43;987.76;;;16.35;52.7
75089;BME280;63673;49.928;8.150;2023-06-14T03:29:45;987.73;;;16.33;52.21
75089;BME280;63673;49.928;8.150;2023-06-14T03:30:47;987.76;;;16.32;52.56
75089;BME280;63673;49.928;8.150;2023-06-14T03:31:56;987.76;;;16.31;52.82
75089;BME280;63673;49.928;8.150;2023-06-14T03:32:50;987.77;;;16.28;52.44
75089;BME280;63673;49.928;8.150;2023-06-14T03:33:52;987.74;;;16.28;53.1
75089;BME280;63673;49.928;8.150;2023-06-14T03:34:54;987.79;;;16.25;53.26
75089;BME280;63673;49.928;8.150;2023-06-14T03:35:55;987.79;;;16.24;53.21
75089;BME280;63673;49.928;8.150;2023-06-14T03:36:57;987.81;;;16.23;53.25
75089;BME280;63673;49.928;8.150;2023-06-14T03:37:59;987.78;;;16.22;53.06
75089;BME280;63673;49.928;8.150;2023-06-14T03:39:01;987.77;;;16.21;53.59
75089;BME280;63673;49.928;8.150;2023-06-14T03:40:02;987.82;;;16.19;52.88
75089;BME280;63673;49.928;8.150;2023-06-14T03:41:04;987.81;;;16.19;53.3
75089;BME280;63673;49.928;8.150;2023-06-14T03:42:06;987.86;;;16.18;53.63
75089;BME280;63673;49.928;8.150;2023-06-14T03:43:08;987.85;;;16.16;53.43
75089;BME280;63673;49.928;8.150;2023-06-14T03:44:09;987.83;;;16.15;53.87
75089;BME280;63673;49.928;8.150;2023-06-14T03:45:11;987.87;;;16.13;53.96
75089;BME280;63673;49.928;8.150;2023-06-14T03:46:13;987.86;;;16.12;54.17
75089;BME280;63673;49.928;8.150;2023-06-14T03:47:14;987.86;;;16.12;54.02
75089;BME280;63673;49.928;8.150;2023-06-14T03:48:16;987.9;;;16.11;53.68
75089;BME280;63673;49.928;8.150;2023-06-14T03:49:18;987.95;;;16.09;54.09
75089;BME280;63673;49.928;8.150;2023-06-14T03:50:20;987.96;;;16.09;53.87
75089;BME280;63673;49.928;8.150;2023-06-14T03:51:21;987.98;;;16.07;54.02
75089;BME280;63673;49.928;8.150;2023-06-14T03:52:23;987.93;;;16.06;53.99
75089;BME280;63673;49.928;8.150;2023-06-14T03:53:25;988;;;16.05;54.12
75089;BME280;63673;49.928;8.150;2023-06-14T03:54:27;987.94;;;16.04;54.66
75089;BME280;63673;49.928;8.150;2023-06-14T03:55:28;988.02;;;16.02;54.34
75089;BME280;63673;49.928;8.150;2023-06-14T03:56:30;988.06;;;16.01;54.77
75089;BME280;63673;49.928;8.150;2023-06-14T03:57:32;988.03;;;15.99;54.61
75089;BME280;63673;49.928;8.150;2023-06-14T03:58:34;988.01;;;15.98;54.67
75089;BME280;63673;49.928;8.150;2023-06-14T03:59:35;988;;;15.95;54.76
75089;BME280;63673;49.928;8.150;2023-06-14T04:00:37;988;;;15.94;55.38
75089;BME280;63673;49.928;8.150;2023-06-14T04:01:40;988.02;;;15.94;55.34
75089;BME280;63673;49.928;8.150;2023-06-14T04:02:41;988.03;;;15.93;54.9
75089;BME280;63673;49.928;8.150;2023-06-14T04:03:42;988.05;;;15.91;55.37
75089;BME280;63673;49.928;8.150;2023-06-14T04:04:44;988.03;;;15.91;55.52
75089;BME280;63673;49.928;8.150;2023-06-14T04:05:46;988.03;;;15.9;55.37
75089;BME280;63673;49.928;8.150;2023-06-14T04:06:47;988.01;;;15.9;55.79
75089;BME280;63673;49.928;8.150;2023-06-14T04:07:49;988.06;;;15.91;55.6
75089;BME280;63673;49.928;8.150;2023-06-14T04:08:51;988.04;;;15.92;55.64
75089;BME280;63673;49.928;8.150;2023-06-14T04:09:53;988.04;;;15.92;55.75
75089;BME280;63673;49.928;8.150;2023-06-14T04:10:54;988.05;;;15.93;55.56
75089;BME280;63673;49.928;8.150;2023-06-14T04:11:56;988.06;;;15.94;55.83
75089;BME280;63673;49.928;8.150;2023-06-14T04:12:58;988.04;;;15.95;55.77
75089;BME280;63673;49.928;8.150;2023-06-14T04:14:01;988.08;;;15.98;55.97
75089;BME280;63673;49.928;8.150;2023-06-14T04:15:01;988.12;;;16;55.4
75089;BME280;63673;49.928;8.150;2023-06-14T04:16:03;988.11;;;16.02;55.43
75089;BME280;63673;49.928;8.150;2023-06-14T04:17:05;988.14;;;16.03;55.6
75089;BME280;63673;49.928;8.150;2023-06-14T04:18:07;988.15;;;16.06;55.45
75089;BME280;63673;49.928;8.150;2023-06-14T04:19:08;988.13;;;16.07;55.49
75089;BME280;63673;49.928;8.150;2023-06-14T04:20:10;988.12;;;16.09;55.84
75089;BME280;63673;49.928;8.150;2023-06-14T04:21:12;988.18;;;16.11;55.7
75089;BME280;63673;49.928;8.150;2023-06-14T04:22:13;988.11;;;16.13;55.73
75089;BME280;63673;49.928;8.150;2023-06-14T04:23:16;988.12;;;16.14;55.66
75089;BME280;63673;49.928;8.150;2023-06-14T04:24:17;988.14;;;16.16;55.46
75089;BME280;63673;49.928;8.150;2023-06-14T04:25:19;988.1;;;16.18;55.85
75089;BME280;63673;49.928;8.150;2023-06-14T04:26:20;988.1;;;16.21;55.97
75089;BME280;63673;49.928;8.150;2023-06-14T04:27:22;988.11;;;16.23;55.66
75089;BME280;63673;49.928;8.150;2023-06-14T04:28:24;988.14;;;16.25;55.59
75089;BME280;63673;49.928;8.150;2023-06-14T04:29:26;988.15;;;16.26;55.79
75089;BME280;63673;49.928;8.150;2023-06-14T04:30:27;988.14;;;16.28;55.55
75089;BME280;63673;49.928;8.150;2023-06-14T04:31:29;988.12;;;16.29;55.48
75089;BME280;63673;49.928;8.150;2023-06-14T04:32:31;988.13;;;16.29;55.66
75089;BME280;63673;49.928;8.150;2023-06-14T04:33:33;988.14;;;16.31;55.76
75089;BME280;63673;49.928;8.150;2023-06-14T04:34:34;988.14;;;16.32;56.04
75089;BME280;63673;49.928;8.150;2023-06-14T04:35:36;988.19;;;16.34;55.97
75089;BME280;63673;49.928;8.150;2023-06-14T04:36:38;988.18;;;16.34;55.85
75089;BME280;63673;49.928;8.150;2023-06-14T04:37:39;988.18;;;16.37;56.57
75089;BME280;63673;49.928;8.150;2023-06-14T04:38:41;988.21;;;16.38;55.64
75089;BME280;63673;49.928;8.150;2023-06-14T04:39:43;988.18;;;16.39;56.06
75089;BME280;63673;49.928;8.150;2023-06-14T04:40:45;988.22;;;16.42;56.13
75089;BME280;63673;49.928;8.150;2023-06-14T04:41:47;988.2;;;16.43;55.93
75089;BME280;63673;49.928;8.150;2023-06-14T04:42:48;988.27;;;16.45;55.63
75089;BME280;63673;49.928;8.150;2023-06-14T04:43:50;988.25;;;16.46;55.78
75089;BME280;63673;49.928;8.150;2023-06-14T04:44:52;988.25;;;16.48;55.76
75089;BME280;63673;49.928;8.150;2023-06-14T04:45:53;988.25;;;16.5;55.49
75089;BME280;63673;49.928;8.150;2023-06-14T04:46:55;988.26;;;16.52;55.72
75089;BME280;63673;49.928;8.150;2023-06-14T04:47:58;988.24;;;16.53;55.58
75089;BME280;63673;49.928;8.150;2023-06-14T04:48:59;988.21;;;16.54;55.88
75089;BME280;63673;49.928;8.150;2023-06-14T04:50:00;988.24;;;16.57;55.54
75089;BME280;63673;49.928;8.150;2023-06-14T04:51:02;988.22;;;16.58;55.37
75089;BME280;63673;49.928;8.150;2023-06-14T04:52:04;988.21;;;16.61;55.44
75089;BME280;63673;49.928;8.150;2023-06-14T04:53:05;988.27;;;16.63;55.57
75089;BME280;63673;49.928;8.150;2023-06-14T04:54:07;988.24;;;16.65;55.63
75089;BME280;63673;49.928;8.150;2023-06-14T04:55:09;988.26;;;16.67;55.39
75089;BME280;63673;49.928;8.150;2023-06-14T04:56:11;988.32;;;16.69;55.46
75089;BME280;63673;49.928;8.150;2023-06-14T04:57:12;988.33;;;16.7;55.61
75089;BME280;63673;49.928;8.150;2023-06-14T04:58:14;988.33;;;16.72;56.03
75089;BME280;63673;49.928;8.150;2023-06-14T04:59:16;988.39;;;16.74;55.94
75089;BME280;63673;49.928;8.150;2023-06-14T05:00:18;988.39;;;16.75;56.1
75089;BME280;63673;49.928;8.150;2023-06-14T05:01:20;988.38;;;16.76;56.11
75089;BME280;63673;49.928;8.150;2023-06-14T05:02:21;988.39;;;16.77;56.31
75089;BME280;63673;49.928;8.150;2023-06-14T05:03:23;988.38;;;16.78;56.18
75089;BME280;63673;49.928;8.150;2023-06-14T05:04:25;988.43;;;16.79;56.02
75089;BME280;63673;49.928;8.150;2023-06-14T05:05:26;988.4;;;16.81;56.13
75089;BME280;63673;49.928;8.150;2023-06-14T05:06:28;988.46;;;16.83;56.29
75089;BME280;63673;49.928;8.150;2023-06-14T05:07:30;988.44;;;16.84;55.98
75089;BME280;63673;49.928;8.150;2023-06-14T05:08:31;988.38;;;16.87;55.78
75089;BME280;63673;49.928;8.150;2023-06-14T05:09:33;988.41;;;16.89;55.99
75089;BME280;63673;49.928;8.150;2023-06-14T05:10:35;988.41;;;16.91;55.95
75089;BME280;63673;49.928;8.150;2023-06-14T05:11:37;988.42;;;16.95;55.69
75089;BME280;63673;49.928;8.150;2023-06-14T05:12:38;988.43;;;16.97;56.19
75089;BME280;63673;49.928;8.150;2023-06-14T05:13:40;988.4;;;17;55.85
75089;BME280;63673;49.928;8.150;2023-06-14T05:14:42;988.41;;;17.02;56.22
75089;BME280;63673;49.928;8.150;2023-06-14T05:15:44;988.38;;;17.04;56.13
75089;BME280;63673;49.928;8.150;2023-06-14T05:16:45;988.36;;;17.06;56.03
75089;BME280;63673;49.928;8.150;2023-06-14T05:17:47;988.36;;;17.1;55.88
75089;BME280;63673;49.928;8.150;2023-06-14T05:18:49;988.41;;;17.13;56.26
75089;BME280;63673;49.928;8.150;2023-06-14T05:19:51;988.42;;;17.17;56.16
75089;BME280;63673;49.928;8.150;2023-06-14T05:20:52;988.4;;;17.19;55.38
75089;BME280;63673;49.928;8.150;2023-06-14T05:21:54;988.43;;;17.23;55.5
75089;BME280;63673;49.928;8.150;2023-06-14T05:22:56;988.42;;;17.25;55.37
75089;BME280;63673;49.928;8.150;2023-06-14T05:23:57;988.4;;;17.28;55.82
75089;BME280;63673;49.928;8.150;2023-06-14T05:24:59;988.45;;;17.33;56.62
75089;BME280;63673;49.928;8.150;2023-06-14T05:26:01;988.42;;;17.35;55.65
75089;BME280;63673;49.928;8.150;2023-06-14T05:27:03;988.46;;;17.4;55.36
75089;BME280;63673;49.928;8.150;2023-06-14T05:28:04;988.46;;;17.44;54.75
75089;BME280;63673;49.928;8.150;2023-06-14T05:29:06;988.45;;;17.48;55.28
75089;BME280;63673;49.928;8.150;2023-06-14T05:30:08;988.46;;;17.51;54.72
75089;BME280;63673;49.928;8.150;2023-06-14T05:31:10;988.46;;;17.55;55.25
75089;BME280;63673;49.928;8.150;2023-06-14T05:32:11;988.47;;;17.59;55.28
75089;BME280;63673;49.928;8.150;2023-06-14T05:33:13;988.49;;;17.62;54.89
75089;BME280;63673;49.928;8.150;2023-06-14T05:34:15;988.51;;;17.67;54.59
75089;BME280;63673;49.928;8.150;2023-06-14T05:35:17;988.53;;;17.72;54.19
75089;BME280;63673;49.928;8.150;2023-06-14T05:36:19;988.53;;;17.76;53.95
75089;BME280;63673;49.928;8.150;2023-06-14T05:37:20;988.51;;;17.81;53.96